Aviation Digital Data Service (ADDS)

Output produced by TAFs form (0744 UTC 28 June 2016)
found at http://aviationweather.gov/adds/tafs/
 
KEGE 280529Z 2806/2906 10005KT P6SM FEW250 
     FM281800 25005KT P6SM FEW120 BKN200 
     FM282100 25010G18KT P6SM SCT120 BKN150 
     FM290300 13004KT P6SM SCT110 BKN150 AMD LTD TO CLD VIS AND WIND TIL 281300